Time;durP1;ratioP1;P1;durP2;ratioP2;P2;SDS_P1;SDS_P2;PMS_P1;PMS_P2;Temp;Humidity;BMP_temperature;BMP_pressure;BME280_temperature;BME280_humidity;BME280_pressure;Samples;Min_cycle;Max_cycle;Signal;HPM_P1;HPM_P2
2024/01/06 00:00:16;;;;;;;54.25;31.33;;;;;;;7.25;62.24;94791.44;5047191;28;20123;-73
2024/01/06 00:02:41;;;;;;;51.17;31.90;;;;;;;7.29;62.32;94797.63;5048070;28;20047;-74
2024/01/06 00:05:07;;;;;;;50.17;33.47;;;;;;;7.26;62.37;94779.31;5047000;28;20104;-75
2024/01/06 00:07:32;;;;;;;54.90;32.40;;;;;;;7.12;62.48;94753.78;5047509;28;20075;-74
2024/01/06 00:09:57;;;;;;;50.33;30.02;;;;;;;7.23;62.70;94775.47;5047105;28;20027;-74
2024/01/06 00:12:23;;;;;;;52.50;32.25;;;;;;;7.26;62.51;94776.56;5047216;28;20021;-74
2024/01/06 00:14:48;;;;;;;52.25;32.13;;;;;;;7.22;62.70;94784.06;5047413;28;20076;-74
2024/01/06 00:17:14;;;;;;;56.33;31.63;;;;;;;7.17;62.66;94799.00;5047305;28;20118;-74
2024/01/06 00:19:39;;;;;;;49.90;32.50;;;;;;;7.14;62.67;94789.66;5047666;28;20311;-74
2024/01/06 00:22:05;;;;;;;53.30;31.70;;;;;;;7.22;62.82;94795.75;5046687;28;20811;-73
2024/01/06 00:24:30;;;;;;;57.10;33.00;;;;;;;7.16;62.82;94787.28;5047212;28;20025;-73
2024/01/06 00:26:56;;;;;;;58.35;34.17;;;;;;;7.15;63.08;94802.13;5046728;28;20090;-73
2024/01/06 00:29:21;;;;;;;56.88;35.28;;;;;;;7.22;62.77;94800.47;5046943;28;20021;-74
2024/01/06 00:31:46;;;;;;;62.13;36.92;;;;;;;7.17;62.77;94802.50;5045703;28;20113;-74
2024/01/06 00:34:12;;;;;;;57.40;35.45;;;;;;;7.21;62.70;94812.59;5046868;28;20094;-73
2024/01/06 00:36:37;;;;;;;61.38;34.35;;;;;;;7.18;62.75;94797.81;5046064;28;20380;-74
2024/01/06 00:39:03;;;;;;;63.13;36.60;;;;;;;7.14;63.08;94800.59;5046712;28;20173;-73
2024/01/06 00:41:29;;;;;;;59.30;36.88;;;;;;;7.09;62.96;94812.00;5047192;28;20029;-74
2024/01/06 00:43:54;;;;;;;57.78;36.08;;;;;;;7.05;62.86;94800.34;5046318;28;20039;-74
2024/01/06 00:46:20;;;;;;;58.80;34.50;;;;;;;7.04;63.16;94789.84;5046838;28;20064;-73
2024/01/06 00:48:45;;;;;;;58.28;33.08;;;;;;;7.06;63.32;94788.25;5046692;28;20116;-73
2024/01/06 00:51:10;;;;;;;60.97;33.90;;;;;;;7.03;63.49;94772.69;5046412;28;20415;-74
2024/01/06 00:53:36;;;;;;;48.80;30.13;;;;;;;6.99;63.74;94771.19;5046887;28;20071;-73
2024/01/06 00:56:01;;;;;;;51.95;30.90;;;;;;;6.99;63.43;94780.16;5046059;28;20045;-74
2024/01/06 00:58:26;;;;;;;46.85;29.73;;;;;;;6.98;63.25;94786.81;5047210;28;20036;-75
2024/01/06 01:00:52;;;;;;;46.90;28.73;;;;;;;6.95;63.26;94784.94;5046068;28;20375;-73
2024/01/06 01:03:17;;;;;;;47.53;29.08;;;;;;;6.89;63.30;94781.13;5046865;28;20108;-73
2024/01/06 01:05:43;;;;;;;52.47;27.98;;;;;;;6.94;63.25;94794.31;5046510;28;20029;-73
2024/01/06 01:08:08;;;;;;;46.67;28.77;;;;;;;6.89;63.10;94779.19;5046334;28;20027;-73
2024/01/06 01:10:33;;;;;;;46.47;27.52;;;;;;;6.88;63.05;94763.97;5046823;28;20013;-74
2024/01/06 01:12:59;;;;;;;43.67;27.55;;;;;;;6.86;63.19;94773.75;5046292;28;20506;-73
2024/01/06 01:15:24;;;;;;;44.90;27.25;;;;;;;6.89;63.29;94775.66;5045261;28;20128;-75
2024/01/06 01:17:49;;;;;;;43.65;26.27;;;;;;;6.89;62.88;94765.50;5046161;28;20025;-73
2024/01/06 01:20:15;;;;;;;42.42;25.80;;;;;;;6.87;62.95;94778.81;5046482;28;20155;-73
2024/01/06 01:22:40;;;;;;;45.55;25.85;;;;;;;6.88;62.74;94785.03;5046232;28;20098;-74
2024/01/06 01:25:07;;;;;;;38.97;22.45;;;;;;;6.84;62.69;94776.16;5045089;28;20104;-73
2024/01/06 01:27:33;;;;;;;40.28;24.17;;;;;;;6.79;62.73;94774.66;5046625;28;20033;-73
2024/01/06 01:29:59;;;;;;;43.88;25.08;;;;;;;6.74;63.01;94777.09;5046341;28;20029;-73
2024/01/06 01:32:24;;;;;;;39.30;24.30;;;;;;;6.80;62.85;94759.81;5046477;28;20424;-74
2024/01/06 01:34:50;;;;;;;35.85;21.63;;;;;;;6.78;62.62;94755.97;5045911;28;20064;-74
2024/01/06 01:37:15;;;;;;;37.33;24.10;;;;;;;6.80;62.54;94759.03;5050125;28;20541;-73
2024/01/06 01:39:41;;;;;;;34.80;22.58;;;;;;;6.70;62.60;94757.25;5049740;28;20124;-74
2024/01/06 01:42:06;;;;;;;33.30;20.20;;;;;;;6.61;61.88;94750.38;5048700;28;20025;-74
2024/01/06 01:44:32;;;;;;;31.67;21.05;;;;;;;6.55;61.74;94741.09;5050056;28;20021;-73
2024/01/06 01:46:57;;;;;;;35.05;20.75;;;;;;;6.46;62.12;94735.38;5050092;28;20055;-74
2024/01/06 01:49:23;;;;;;;33.00;21.05;;;;;;;6.54;62.24;94741.53;5050064;28;20368;-74
2024/01/06 01:51:49;;;;;;;39.72;23.08;;;;;;;6.67;62.44;94744.44;5049926;28;20485;-73
2024/01/06 01:54:14;;;;;;;44.35;25.30;;;;;;;6.61;63.22;94746.88;5048803;28;20025;-73
2024/01/06 01:56:41;;;;;;;40.38;26.27;;;;;;;6.61;63.44;94744.91;5048322;28;20025;-73
2024/01/06 01:59:11;;;;;;;43.25;26.58;;;;;;;6.54;63.68;94728.66;5048641;28;20029;-73
2024/01/06 02:01:37;;;;;;;44.50;26.13;;;;;;;6.54;63.91;94744.25;5048280;28;20381;-73
2024/01/06 02:04:03;;;;;;;43.97;27.80;;;;;;;6.54;63.85;94742.31;5049885;28;20036;-73
2024/01/06 02:06:28;;;;;;;44.00;28.35;;;;;;;6.42;63.94;94720.25;5049781;28;20108;-73
2024/01/06 02:08:53;;;;;;;42.97;27.55;;;;;;;6.55;64.04;94735.66;5049330;28;20021;-74
2024/01/06 02:11:19;;;;;;;46.75;27.02;;;;;;;6.54;64.06;94725.91;5049785;28;20338;-73
2024/01/06 02:13:44;;;;;;;43.17;28.67;;;;;;;6.55;64.26;94722.00;5049141;28;20547;-73
2024/01/06 02:16:10;;;;;;;47.03;29.45;;;;;;;6.59;64.27;94714.50;5049666;28;20044;-73
2024/01/06 02:18:35;;;;;;;50.72;28.65;;;;;;;6.60;64.37;94713.31;5049114;28;20029;-74
2024/01/06 02:21:02;;;;;;;48.95;29.52;;;;;;;6.64;63.97;94724.16;5049153;28;20096;-72
2024/01/06 02:23:29;;;;;;;48.30;28.67;;;;;;;6.69;63.97;94709.28;5049346;28;20079;-73
2024/01/06 02:25:55;;;;;;;48.35;28.65;;;;;;;6.71;63.96;94709.63;5049395;28;20087;-73
2024/01/06 02:28:21;;;;;;;47.92;30.00;;;;;;;6.68;64.06;94692.09;5049527;28;20021;-73
2024/01/06 02:30:46;;;;;;;46.65;27.88;;;;;;;6.65;63.89;94691.00;5049384;28;20031;-73
2024/01/06 02:33:12;;;;;;;41.85;27.98;;;;;;;6.73;63.55;94685.41;5047988;28;20040;-74
2024/01/06 02:35:37;;;;;;;44.55;24.90;;;;;;;6.73;63.14;94682.66;5048993;28;20062;-74
2024/01/06 02:38:03;;;;;;;39.92;26.15;;;;;;;6.77;62.74;94686.13;5049521;28;20048;-73
2024/01/06 02:40:28;;;;;;;41.17;24.52;;;;;;;6.75;62.50;94677.53;5048923;28;20104;-74
2024/01/06 02:42:54;;;;;;;36.53;23.55;;;;;;;6.75;62.25;94681.03;5047499;28;20403;-74
2024/01/06 02:45:19;;;;;;;40.45;25.23;;;;;;;6.70;62.92;94676.06;5048995;28;20029;-73
2024/01/06 02:47:44;;;;;;;40.45;25.42;;;;;;;6.65;63.20;94680.06;5048715;28;20032;-74
2024/01/06 02:50:10;;;;;;;39.55;25.05;;;;;;;6.68;63.12;94683.16;5049040;28;20022;-73
2024/01/06 02:52:35;;;;;;;36.33;23.17;;;;;;;6.68;62.83;94672.22;5048463;28;20028;-73
2024/01/06 02:55:01;;;;;;;45.70;24.98;;;;;;;6.63;62.94;94662.53;5049145;28;20614;-73
2024/01/06 02:57:27;;;;;;;41.92;25.48;;;;;;;6.59;63.48;94657.13;5048678;28;20044;-74
2024/01/06 02:59:53;;;;;;;44.35;27.08;;;;;;;6.61;63.64;94664.94;5048879;28;20039;-73
2024/01/06 03:02:18;;;;;;;44.15;27.20;;;;;;;6.64;63.21;94664.84;5048649;28;20021;-73
2024/01/06 03:04:44;;;;;;;43.28;27.08;;;;;;;6.61;63.06;94660.22;5047248;28;20029;-74
2024/01/06 03:07:10;;;;;;;50.08;26.20;;;;;;;6.64;63.04;94658.63;5048410;28;20033;-73
2024/01/06 03:09:35;;;;;;;38.75;25.40;;;;;;;6.65;62.84;94658.22;5048277;28;20036;-74
2024/01/06 03:12:01;;;;;;;46.42;26.77;;;;;;;6.68;62.80;94659.31;5047256;28;20017;-74
2024/01/06 03:14:26;;;;;;;44.28;25.95;;;;;;;6.73;62.73;94658.06;5048222;28;20096;-74
2024/01/06 03:16:51;;;;;;;41.15;26.08;;;;;;;6.75;62.69;94652.97;5048807;28;20306;-74
2024/01/06 03:19:17;;;;;;;37.83;25.90;;;;;;;6.69;62.81;94658.13;5048111;28;20024;-73
2024/01/06 03:21:42;;;;;;;46.35;27.50;;;;;;;6.67;63.19;94648.81;5048670;28;20452;-74
2024/01/06 03:24:09;;;;;;;39.08;26.90;;;;;;;6.62;63.32;94637.19;5047953;28;20029;-74
2024/01/06 03:26:34;;;;;;;38.38;25.80;;;;;;;6.65;63.25;94650.03;5048340;28;20041;-73
2024/01/06 03:29:02;;;;;;;39.40;26.42;;;;;;;6.68;63.18;94650.38;5048128;28;20036;-74
2024/01/06 03:31:28;;;;;;;43.35;26.48;;;;;;;6.61;63.29;94643.06;5047576;28;20036;-73
2024/01/06 03:33:55;;;;;;;44.00;27.67;;;;;;;6.60;63.73;94644.28;5048838;28;20114;-74
2024/01/06 03:36:21;;;;;;;44.95;27.10;;;;;;;6.57;63.75;94651.31;5048082;28;20104;-73
2024/01/06 03:38:46;;;;;;;43.25;27.40;;;;;;;6.62;63.73;94644.63;5048207;28;20113;-74
2024/01/06 03:41:11;;;;;;;44.65;26.35;;;;;;;6.58;63.62;94641.94;5047592;28;20519;-74
2024/01/06 03:43:37;;;;;;;40.65;25.20;;;;;;;6.49;63.67;94639.00;5047974;28;20041;-74
2024/01/06 03:46:02;;;;;;;35.30;21.73;;;;;;;6.54;63.48;94651.41;5048000;28;20052;-75
2024/01/06 03:48:28;;;;;;;35.85;22.08;;;;;;;6.48;63.42;94653.84;5047734;28;20025;-73
2024/01/06 03:50:53;;;;;;;36.53;21.77;;;;;;;6.41;63.85;94642.25;5048090;28;20061;-74
2024/01/06 03:53:19;;;;;;;38.38;21.77;;;;;;;6.43;63.84;94645.34;5047400;28;20025;-74
2024/01/06 03:55:44;;;;;;;40.08;22.92;;;;;;;6.45;63.80;94646.47;5048004;28;20045;-74
2024/01/06 03:58:10;;;;;;;35.35;22.50;;;;;;;6.45;63.92;94646.47;5045487;28;20033;-74
2024/01/06 04:00:35;;;;;;;36.00;23.40;;;;;;;6.46;63.73;94639.06;5046070;28;20141;-74
2024/01/06 04:03:01;;;;;;;40.67;24.33;;;;;;;6.51;63.88;94641.31;5047533;28;20025;-73
2024/01/06 04:05:26;;;;;;;37.55;24.27;;;;;;;6.53;63.57;94642.41;5046031;28;20071;-74
2024/01/06 04:07:51;;;;;;;41.83;24.77;;;;;;;6.51;63.72;94644.03;5047967;28;20017;-74
2024/01/06 04:10:17;;;;;;;39.50;25.30;;;;;;;6.51;63.79;94642.06;5047008;28;20407;-74
2024/01/06 04:12:42;;;;;;;40.45;24.80;;;;;;;6.52;63.91;94643.59;5048052;28;20029;-74
2024/01/06 04:15:08;;;;;;;41.22;25.90;;;;;;;6.52;63.78;94648.31;5046680;28;20048;-73
2024/01/06 04:17:33;;;;;;;45.20;26.77;;;;;;;6.51;63.88;94642.06;5047584;28;20485;-73
2024/01/06 04:19:59;;;;;;;42.47;27.50;;;;;;;6.56;63.61;94638.84;5046757;28;20036;-73
2024/01/06 04:22:24;;;;;;;49.13;29.27;;;;;;;6.53;63.76;94641.66;5047136;28;20021;-75
2024/01/06 04:24:50;;;;;;;48.10;28.83;;;;;;;6.49;63.78;94635.50;5046001;28;20233;-74
2024/01/06 04:27:15;;;;;;;49.47;30.63;;;;;;;6.47;63.49;94643.31;5046821;28;20032;-74
2024/01/06 04:29:41;;;;;;;53.15;31.13;;;;;;;6.46;63.33;94648.00;5046295;28;20487;-74
2024/01/06 04:32:07;;;;;;;52.95;31.42;;;;;;;6.41;63.02;94644.97;5046383;28;20108;-73
2024/01/06 04:34:33;;;;;;;53.53;33.97;;;;;;;6.45;62.80;94668.31;5047321;28;20052;-74
2024/01/06 04:36:58;;;;;;;53.88;33.72;;;;;;;6.38;63.07;94671.19;5046564;28;20056;-74
2024/01/06 04:39:23;;;;;;;53.80;31.50;;;;;;;6.31;63.14;94657.66;5046852;28;20039;-73
2024/01/06 04:41:49;;;;;;;54.10;31.27;;;;;;;6.29;62.94;94663.50;5046749;28;20064;-73
2024/01/06 04:44:14;;;;;;;53.20;31.90;;;;;;;6.27;62.96;94665.88;5046626;28;20033;-73
2024/01/06 04:46:40;;;;;;;68.05;37.35;;;;;;;6.19;63.28;94674.59;5045862;28;20029;-74
2024/01/06 04:49:05;;;;;;;64.65;38.60;;;;;;;6.20;63.02;94676.94;5046120;28;20108;-74
2024/01/06 04:51:30;;;;;;;62.38;37.28;;;;;;;6.17;62.82;94661.38;5047221;28;20017;-74
2024/01/06 04:53:56;;;;;;;55.88;32.35;;;;;;;6.18;62.61;94668.38;5046509;28;20664;-74
2024/01/06 04:56:21;;;;;;;48.75;29.80;;;;;;;6.28;62.51;94658.47;5046775;28;20024;-74
2024/01/06 04:58:46;;;;;;;47.05;29.30;;;;;;;6.20;62.60;94666.00;5046575;28;20032;-74
2024/01/06 05:01:12;;;;;;;68.90;37.08;;;;;;;6.18;62.84;94667.59;5044868;28;20400;-75
2024/01/06 05:03:37;;;;;;;67.38;36.53;;;;;;;6.08;63.30;94664.63;5045686;28;20025;-75
2024/01/06 05:06:03;;;;;;;61.28;37.20;;;;;;;6.08;63.32;94658.41;5044918;28;20024;-74
2024/01/06 05:08:30;;;;;;;63.28;36.47;;;;;;;5.99;63.09;94637.09;5046874;28;20459;-74
2024/01/06 05:10:56;;;;;;;55.72;33.20;;;;;;;5.97;63.56;94642.22;5047307;28;20025;-74
2024/01/06 05:13:21;;;;;;;54.50;31.00;;;;;;;5.99;63.07;94636.34;5049717;28;20195;-73
2024/01/06 05:15:47;;;;;;;51.75;29.17;;;;;;;5.94;63.15;94644.97;5050230;28;20132;-74
2024/01/06 05:18:12;;;;;;;45.65;27.77;;;;;;;5.91;63.33;94638.41;5050546;28;20108;-73
2024/01/06 05:20:38;;;;;;;48.38;27.83;;;;;;;5.86;63.69;94641.56;5049989;28;20119;-73
2024/01/06 05:23:03;;;;;;;48.13;28.90;;;;;;;5.85;63.94;94632.63;5050077;28;20151;-73
2024/01/06 05:25:29;;;;;;;45.20;27.45;;;;;;;5.75;64.23;94630.81;5051115;28;20024;-73
2024/01/06 05:27:54;;;;;;;40.80;27.85;;;;;;;5.69;64.51;94621.56;5050003;28;20114;-75
2024/01/06 05:30:20;;;;;;;44.85;28.10;;;;;;;5.68;64.48;94614.56;5050801;28;20100;-73
2024/01/06 05:32:45;;;;;;;42.53;25.75;;;;;;;5.60;64.79;94613.88;5050229;28;20027;-74
2024/01/06 05:35:10;;;;;;;40.05;23.73;;;;;;;5.67;64.18;94612.22;5050128;28;20029;-73
2024/01/06 05:37:36;;;;;;;39.20;24.45;;;;;;;5.71;63.99;94616.47;5050398;28;20032;-74
2024/01/06 05:40:03;;;;;;;38.03;23.83;;;;;;;5.63;64.06;94611.53;5049924;28;20071;-74
2024/01/06 05:42:29;;;;;;;39.63;23.50;;;;;;;5.57;64.05;94625.63;5048931;28;20491;-74
2024/01/06 05:44:55;;;;;;;32.70;22.23;;;;;;;5.57;64.14;94620.19;5048476;28;20017;-74
2024/01/06 05:47:20;;;;;;;41.25;22.30;;;;;;;5.64;64.03;94626.72;5050090;28;20474;-74
2024/01/06 05:49:45;;;;;;;36.72;22.63;;;;;;;5.65;63.77;94612.66;5049796;28;20025;-75
2024/01/06 05:52:11;;;;;;;27.65;18.35;;;;;;;5.60;63.13;94624.78;5050029;28;20439;-75
2024/01/06 05:54:36;;;;;;;32.13;19.17;;;;;;;5.54;63.46;94607.34;5049868;28;20025;-75
2024/01/06 05:57:02;;;;;;;23.65;15.27;;;;;;;5.52;63.37;94614.41;5049726;28;20471;-73
2024/01/06 05:59:27;;;;;;;18.85;13.73;;;;;;;5.47;62.47;94602.00;5049639;28;20067;-76
2024/01/06 06:01:53;;;;;;;19.00;11.35;;;;;;;5.58;62.25;94599.13;5049968;28;20025;-74
2024/01/06 06:04:18;;;;;;;19.25;12.07;;;;;;;5.59;62.04;94612.34;5049764;28;20021;-73
2024/01/06 06:06:44;;;;;;;22.83;12.55;;;;;;;5.62;62.03;94621.69;5049282;28;20065;-73
2024/01/06 06:09:10;;;;;;;22.63;13.70;;;;;;;5.63;62.09;94606.84;5048594;28;20150;-73
2024/01/06 06:11:36;;;;;;;21.08;12.68;;;;;;;5.68;61.68;94617.28;5049181;28;20025;-73
2024/01/06 06:14:02;;;;;;;20.15;11.43;;;;;;;5.70;61.60;94616.88;5048621;28;20059;-74
2024/01/06 06:16:28;;;;;;;20.58;12.15;;;;;;;5.74;61.40;94617.59;5049434;28;20083;-74
2024/01/06 06:18:54;;;;;;;19.60;12.82;;;;;;;5.67;61.28;94604.06;5049555;28;20372;-73
2024/01/06 06:21:20;;;;;;;19.38;12.73;;;;;;;5.68;61.50;94614.56;5048532;28;20036;-73
2024/01/06 06:23:45;;;;;;;21.00;12.55;;;;;;;5.75;61.41;94624.59;5049353;28;20029;-74
2024/01/06 06:26:11;;;;;;;20.92;13.45;;;;;;;5.70;61.47;94633.25;5049770;28;20025;-73
2024/01/06 06:28:37;;;;;;;19.15;13.15;;;;;;;5.69;61.61;94628.97;5047504;28;20392;-74
2024/01/06 06:31:02;;;;;;;19.35;12.07;;;;;;;5.72;61.49;94615.25;5049414;28;20166;-74
2024/01/06 06:33:28;;;;;;;19.98;12.80;;;;;;;5.79;61.54;94630.75;5049459;28;20054;-74
2024/01/06 06:35:53;;;;;;;21.38;12.85;;;;;;;5.80;61.55;94622.16;5049280;28;20025;-73
2024/01/06 06:38:18;;;;;;;17.95;12.40;;;;;;;5.90;61.40;94634.09;5047814;28;20444;-74
2024/01/06 06:40:44;;;;;;;23.42;14.60;;;;;;;5.94;61.58;94626.66;5049116;28;20476;-73
2024/01/06 06:43:09;;;;;;;28.75;18.33;;;;;;;6.02;61.44;94630.03;5049401;28;20442;-75
2024/01/06 06:45:35;;;;;;;36.28;22.83;;;;;;;6.02;61.48;94619.13;5048917;28;20021;-74
2024/01/06 06:48:00;;;;;;;51.22;30.83;;;;;;;6.09;61.51;94627.19;5047933;28;20502;-74
2024/01/06 06:50:25;;;;;;;56.03;34.95;;;;;;;6.09;61.77;94627.19;5048319;28;20594;-74
2024/01/06 06:52:52;;;;;;;55.80;35.80;;;;;;;6.06;61.72;94623.34;5049172;28;20074;-74
2024/01/06 06:55:18;;;;;;;54.60;35.05;;;;;;;6.09;61.54;94625.25;5048791;28;20033;-73
2024/01/06 06:57:43;;;;;;;53.42;34.88;;;;;;;6.12;61.73;94626.34;5048708;28;20110;-73
2024/01/06 07:00:09;;;;;;;55.92;33.50;;;;;;;6.16;61.83;94626.31;5048621;28;20035;-74
2024/01/06 07:02:34;;;;;;;52.35;34.53;;;;;;;6.12;61.81;94621.66;5048519;28;20091;-74
2024/01/06 07:05:00;;;;;;;57.80;33.67;;;;;;;6.15;61.88;94614.63;5049403;28;20031;-74
2024/01/06 07:07:25;;;;;;;52.28;34.10;;;;;;;6.15;61.79;94613.84;5047926;28;20031;-74
2024/01/06 07:09:50;;;;;;;55.38;35.55;;;;;;;6.25;61.70;94613.69;5048973;28;20025;-74
2024/01/06 07:12:16;;;;;;;50.22;34.78;;;;;;;6.21;61.78;94612.97;5048253;28;20029;-74
2024/01/06 07:14:41;;;;;;;53.22;33.95;;;;;;;6.18;62.04;94610.28;5048388;28;20425;-73
2024/01/06 07:17:07;;;;;;;51.35;32.25;;;;;;;6.29;61.62;94611.63;5048423;28;20025;-75
2024/01/06 07:19:33;;;;;;;49.30;30.83;;;;;;;6.28;61.51;94615.56;5048222;28;20029;-74
2024/01/06 07:21:58;;;;;;;43.22;29.60;;;;;;;6.44;61.27;94619.59;5048564;28;20029;-76
2024/01/06 07:24:24;;;;;;;38.28;25.60;;;;;;;6.48;60.82;94614.81;5046420;28;20480;-73
2024/01/06 07:26:49;;;;;;;38.63;23.48;;;;;;;6.55;60.53;94607.28;5047497;28;20342;-73
2024/01/06 07:29:14;;;;;;;42.85;26.08;;;;;;;6.58;60.54;94608.38;5047773;28;20108;-75
2024/01/06 07:31:40;;;;;;;35.58;24.27;;;;;;;6.62;60.57;94615.34;5047050;28;20029;-74
2024/01/06 07:34:06;;;;;;;39.38;25.23;;;;;;;6.69;60.48;94610.94;5047070;28;20411;-75
2024/01/06 07:36:31;;;;;;;42.38;24.73;;;;;;;6.79;60.50;94605.25;5048074;28;20250;-74
2024/01/06 07:38:57;;;;;;;43.08;27.63;;;;;;;6.80;60.26;94608.75;5048290;28;20356;-74
2024/01/06 07:41:22;;;;;;;53.58;31.50;;;;;;;6.91;60.22;94599.16;5046059;28;20100;-75
2024/01/06 07:43:48;;;;;;;58.28;36.28;;;;;;;7.12;60.02;94611.63;5048455;28;20032;-75
2024/01/06 07:46:13;;;;;;;69.78;41.03;;;;;;;7.14;60.24;94616.66;5047270;28;20083;-75
2024/01/06 07:48:38;;;;;;;83.05;45.30;;;;;;;7.17;59.96;94608.41;5048120;28;20029;-74
2024/01/06 07:51:04;;;;;;;88.68;47.00;;;;;;;7.25;59.67;94616.44;5047796;28;20043;-74
2024/01/06 07:53:29;;;;;;;65.40;43.50;;;;;;;7.32;59.57;94622.53;5047612;28;20028;-75
2024/01/06 07:55:55;;;;;;;74.32;44.40;;;;;;;7.33;59.40;94618.59;5047815;28;20025;-75
2024/01/06 07:58:21;;;;;;;56.63;34.75;;;;;;;7.45;58.45;94612.50;5047342;28;20569;-75
2024/01/06 08:00:47;;;;;;;49.00;32.88;;;;;;;7.64;57.55;94621.06;5047588;28;20033;-74
2024/01/06 08:03:12;;;;;;;50.33;31.05;;;;;;;8.15;56.25;94616.75;5046862;28;20032;-75
2024/01/06 08:05:38;;;;;;;47.30;31.48;;;;;;;8.88;54.24;94619.94;5047832;28;20126;-73
2024/01/06 08:08:04;;;;;;;45.70;30.05;;;;;;;8.89;53.69;94609.75;5045905;28;20013;-74
2024/01/06 08:10:30;;;;;;;44.08;29.25;;;;;;;9.62;51.68;94618.25;5029599;28;20021;-74
2024/01/06 08:12:55;;;;;;;44.13;29.30;;;;;;;9.93;50.69;94602.03;5047312;28;20402;-74
2024/01/06 08:15:21;;;;;;;47.28;29.92;;;;;;;9.75;51.19;94608.84;5046804;28;20045;-74
2024/01/06 08:17:46;;;;;;;47.83;30.25;;;;;;;9.80;51.12;94621.97;5046186;28;20060;-75
2024/01/06 08:20:13;;;;;;;44.75;30.13;;;;;;;10.30;49.88;94609.44;5045209;28;20053;-74
2024/01/06 08:22:38;;;;;;;48.13;30.67;;;;;;;10.19;49.80;94606.25;5046121;28;20078;-75
2024/01/06 08:25:06;;;;;;;43.97;30.63;;;;;;;10.02;49.98;94600.13;5045567;28;20021;-75
2024/01/06 08:27:31;;;;;;;48.83;33.50;;;;;;;10.69;48.61;94604.63;5047405;28;20029;-75
2024/01/06 08:29:57;;;;;;;52.85;33.03;;;;;;;10.70;48.63;94611.66;5045701;28;20032;-76
2024/01/06 08:32:22;;;;;;;55.90;34.58;;;;;;;10.90;48.37;94609.38;5046635;28;20511;-74
2024/01/06 08:34:48;;;;;;;48.22;30.95;;;;;;;10.74;48.06;94617.81;5047208;28;20024;-75
2024/01/06 08:37:14;;;;;;;48.65;34.60;;;;;;;11.48;47.03;94608.09;5046905;28;20021;-75
2024/01/06 08:39:39;;;;;;;48.65;34.80;;;;;;;12.06;46.11;94607.44;5047053;28;20098;-74
2024/01/06 08:42:05;;;;;;;57.83;34.78;;;;;;;13.16;43.32;94615.84;5044970;28;20033;-73
2024/01/06 08:44:30;;;;;;;52.92;35.15;;;;;;;14.71;40.33;94613.78;5047023;28;20048;-75
2024/01/06 08:46:56;;;;;;;47.92;31.45;;;;;;;16.12;37.40;94626.22;5046546;28;20024;-76
2024/01/06 08:49:21;;;;;;;43.08;31.73;;;;;;;16.21;36.41;94614.22;5047025;28;20029;-75
2024/01/06 08:51:46;;;;;;;43.08;30.35;;;;;;;16.07;36.39;94618.56;5046682;28;20029;-74
2024/01/06 08:54:12;;;;;;;43.20;30.48;;;;;;;15.91;36.57;94607.97;5046422;28;20049;-74
2024/01/06 08:56:38;;;;;;;42.35;29.25;;;;;;;16.52;35.62;94613.69;5046906;28;20025;-74
2024/01/06 08:59:03;;;;;;;38.05;28.05;;;;;;;16.28;35.42;94586.09;5046702;28;20033;-74
2024/01/06 09:01:29;;;;;;;37.60;28.55;;;;;;;16.40;35.66;94598.88;5047221;28;20029;-77
2024/01/06 09:03:54;;;;;;;38.17;27.17;;;;;;;15.70;36.37;94590.47;5046281;28;20048;-76
2024/01/06 09:06:19;;;;;;;36.15;26.85;;;;;;;16.05;36.07;94600.88;5046532;28;20916;-72
2024/01/06 09:08:45;;;;;;;36.30;25.23;;;;;;;15.98;36.18;94593.72;5046521;28;20036;-73
2024/01/06 09:11:10;;;;;;;32.78;24.67;;;;;;;16.19;35.79;94584.22;5046574;28;20031;-72
2024/01/06 09:13:35;;;;;;;34.75;25.38;;;;;;;16.69;35.31;94584.13;5046448;28;20032;-72
2024/01/06 09:16:01;;;;;;;34.25;25.77;;;;;;;17.71;33.44;94575.63;5046306;28;20112;-72
2024/01/06 09:18:27;;;;;;;33.67;25.73;;;;;;;17.38;34.39;94561.47;5046418;28;20033;-72
2024/01/06 09:20:52;;;;;;;37.65;28.98;;;;;;;16.89;34.73;94566.72;5045725;28;20430;-73
2024/01/06 09:23:20;;;;;;;38.13;27.73;;;;;;;16.48;35.04;94574.25;5045690;28;20052;-73
2024/01/06 09:25:49;;;;;;;35.40;24.90;;;;;;;16.10;35.38;94576.00;5046311;28;20106;-72
2024/01/06 09:28:15;;;;;;;30.13;21.52;;;;;;;15.85;35.86;94569.06;5044926;28;20021;-73
2024/01/06 09:30:40;;;;;;;24.95;18.70;;;;;;;15.51;35.89;94553.13;5046265;28;20578;-73
2024/01/06 09:33:07;;;;;;;25.65;17.75;;;;;;;15.30;36.21;94541.16;5046239;28;20116;-72
2024/01/06 09:35:33;;;;;;;22.25;16.23;;;;;;;14.90;36.69;94550.00;5046314;28;20079;-72
2024/01/06 09:37:59;;;;;;;23.45;14.88;;;;;;;14.79;36.93;94536.72;5046176;28;20064;-73
2024/01/06 09:40:24;;;;;;;18.17;13.05;;;;;;;14.48;37.56;94540.66;5046217;28;20123;-74
2024/01/06 09:42:51;;;;;;;16.25;10.68;;;;;;;14.23;37.28;94530.03;5044546;28;20040;-75
2024/01/06 09:45:16;;;;;;;16.45;10.57;;;;;;;13.92;37.99;94525.59;5046378;28;20103;-72
2024/01/06 09:47:42;;;;;;;18.45;11.75;;;;;;;13.77;38.29;94522.75;5044482;28;20076;-73
2024/01/06 09:50:11;;;;;;;14.75;12.00;;;;;;;13.84;38.41;94518.13;5046362;28;20115;-72
2024/01/06 09:52:44;;;;;;;17.50;11.63;;;;;;;13.60;38.79;94510.56;5044736;28;20029;-72
2024/01/06 09:55:12;;;;;;;16.05;11.10;;;;;;;13.39;39.06;94509.56;5045877;28;20017;-74
2024/01/06 09:57:38;;;;;;;18.17;11.18;;;;;;;13.44;39.12;94497.88;5048946;28;20036;-73
2024/01/06 10:00:05;;;;;;;15.02;10.07;;;;;;;13.27;39.39;94497.47;5047915;28;20459;-74
2024/01/06 10:02:33;;;;;;;17.10;10.20;;;;;;;12.86;39.90;94490.66;5049874;28;20515;-74
2024/01/06 10:04:58;;;;;;;14.32;9.13;;;;;;;12.65;40.28;94488.84;5049697;28;20044;-73
2024/01/06 10:07:26;;;;;;;21.25;9.73;;;;;;;12.43;41.03;94487.00;5049513;28;20029;-72
2024/01/06 10:09:54;;;;;;;13.90;9.60;;;;;;;12.28;41.22;94494.38;5049879;28;20587;-72
2024/01/06 10:12:23;;;;;;;13.00;8.50;;;;;;;12.02;41.83;94480.09;5049155;28;20033;-71
2024/01/06 10:14:49;;;;;;;14.60;9.73;;;;;;;11.75;42.17;94482.75;5049784;28;20535;-73
2024/01/06 10:17:14;;;;;;;15.45;8.45;;;;;;;11.59;42.71;94475.53;5049308;28;20029;-73
2024/01/06 10:19:40;;;;;;;15.05;8.95;;;;;;;11.49;42.84;94477.50;5049543;28;20029;-73
2024/01/06 10:22:05;;;;;;;12.25;8.30;;;;;;;11.23;43.58;94474.16;5049652;28;20040;-74
2024/01/06 10:24:31;;;;;;;13.30;9.05;;;;;;;11.14;43.97;94468.63;5049397;28;20021;-74
2024/01/06 10:26:57;;;;;;;17.67;9.48;;;;;;;11.04;44.50;94476.06;5049430;28;20021;-76
2024/01/06 10:29:22;;;;;;;15.43;9.80;;;;;;;10.91;44.33;94447.91;5047748;28;20036;-74
2024/01/06 10:31:49;;;;;;;17.52;9.85;;;;;;;11.01;44.72;94460.50;5048119;28;20029;-74
2024/01/06 10:34:14;;;;;;;16.95;9.80;;;;;;;11.00;44.77;94452.66;5048631;28;20051;-74
2024/01/06 10:36:39;;;;;;;15.68;9.57;;;;;;;11.06;44.46;94451.63;5049768;28;20029;-73
2024/01/06 10:39:07;;;;;;;13.63;8.88;;;;;;;11.28;44.52;94448.81;5048802;28;20555;-74
2024/01/06 10:41:33;;;;;;;14.07;8.88;;;;;;;11.81;43.72;94431.34;5048714;28;20039;-73
2024/01/06 10:44:01;;;;;;;12.68;7.85;;;;;;;11.98;42.81;94429.13;5048973;28;20033;-73
2024/01/06 10:46:28;;;;;;;10.48;6.85;;;;;;;11.98;42.28;94435.38;5046793;28;20116;-79
2024/01/06 10:48:55;;;;;;;10.45;6.50;;;;;;;11.92;41.98;94426.97;5047316;28;20479;-78
2024/01/06 10:51:21;;;;;;;8.43;6.03;;;;;;;11.89;42.04;94421.63;5048154;28;20029;-78
2024/01/06 10:53:48;;;;;;;12.93;7.22;;;;;;;11.96;42.24;94419.31;5031759;28;20029;-73
2024/01/06 10:56:14;;;;;;;11.88;7.35;;;;;;;12.06;42.38;94408.31;5047020;28;20048;-74
2024/01/06 10:58:46;;;;;;;12.45;6.55;;;;;;;12.08;42.04;94411.38;5049051;28;20036;-75
2024/01/06 11:01:12;;;;;;;11.38;6.07;;;;;;;12.05;41.93;94404.03;5048638;28;20029;-75
2024/01/06 11:03:39;;;;;;;9.60;5.90;;;;;;;11.95;41.88;94386.75;5048384;28;20027;-74
2024/01/06 11:06:10;;;;;;;7.93;5.25;;;;;;;11.86;41.83;94384.72;5047511;28;20025;-74
2024/01/06 11:08:49;;;;;;;11.13;5.82;;;;;;;11.94;42.10;94393.47;5047088;28;20043;-76
2024/01/06 11:11:23;;;;;;;10.38;6.28;;;;;;;12.14;41.92;94393.00;5047285;28;20562;-74
2024/01/06 11:13:49;;;;;;;10.57;6.65;;;;;;;12.52;41.85;94392.50;5046896;28;20041;-74
2024/01/06 11:16:34;;;;;;;12.70;7.55;;;;;;;12.51;41.94;94379.97;5048116;28;20151;-73